createdAt,value
2023-04-17T00:01:45.632Z,102489.69
2023-04-17T00:04:13.044Z,102491.50
2023-04-17T00:06:43.451Z,102483.69
2023-04-17T00:09:10.726Z,102485.66
2023-04-17T00:11:38.034Z,102486.75
2023-04-17T00:14:06.223Z,102492.06
2023-04-17T00:16:33.866Z,102492.22
2023-04-17T00:19:00.585Z,102487.72
2023-04-17T00:21:29.944Z,102494.72
2023-04-17T00:23:56.973Z,102493.03
2023-04-17T00:26:23.965Z,102487.31
2023-04-17T00:28:52.129Z,102490.13
2023-04-17T00:31:20.516Z,102490.25
2023-04-17T00:33:47.446Z,102490.38
2023-04-17T00:36:15.545Z,102492.91
2023-04-17T00:38:42.525Z,102493.72
2023-04-17T00:41:09.320Z,102495.13
2023-04-17T00:43:36.222Z,102487.47
2023-04-17T00:46:04.406Z,102495.56
2023-04-17T00:48:33.905Z,102489.66
2023-04-17T00:51:02.403Z,102489.84
2023-04-17T00:53:30.897Z,102478.38
2023-04-17T00:55:58.526Z,102481.16
2023-04-17T00:58:25.949Z,102472.34
2023-04-17T01:00:53.094Z,102476.94
2023-04-17T01:03:21.166Z,102474.16
2023-04-17T01:05:51.414Z,102482.97
2023-04-17T01:08:18.723Z,102491.22
2023-04-17T01:10:45.759Z,102485.06
2023-04-17T01:13:12.541Z,102483.41
2023-04-17T01:15:39.329Z,102480.03
2023-04-17T01:18:06.802Z,102487.88
2023-04-17T01:20:34.139Z,102494.03
2023-04-17T01:23:02.615Z,102494.16
2023-04-17T01:25:30.660Z,102494.88
2023-04-17T01:27:57.476Z,102486.91
2023-04-17T01:30:24.439Z,102484.38
2023-04-17T01:32:54.045Z,102490.66
2023-04-17T01:35:20.884Z,102484.25
2023-04-17T01:37:47.658Z,102492.22
2023-04-17T01:40:14.322Z,102490.81
2023-04-17T01:42:42.445Z,102493.44
2023-04-17T01:45:10.621Z,102495.28
2023-04-17T01:47:37.421Z,102492.06
2023-04-17T01:50:04.927Z,102491.22
2023-04-17T01:52:31.705Z,102487.59
2023-04-17T01:54:58.470Z,102489.25
2023-04-17T01:57:25.245Z,102490.25
2023-04-17T01:59:53.585Z,102491.22
2023-04-17T02:02:20.610Z,102492.06
2023-04-17T02:04:47.382Z,102497.22
2023-04-17T02:07:14.265Z,102494.28
2023-04-17T02:09:41.419Z,102496.69
2023-04-17T02:12:08.262Z,102502.00
2023-04-17T02:14:35.096Z,102501.28
2023-04-17T02:17:03.425Z,102497.94
2023-04-17T02:19:30.281Z,102501.72
2023-04-17T02:21:56.959Z,102502.69
2023-04-17T02:24:23.781Z,102504.63
2023-04-17T02:26:50.547Z,102497.66
2023-04-17T02:29:18.471Z,102502.13
2023-04-17T02:31:45.647Z,102505.47
2023-04-17T02:34:13.780Z,102500.03
2023-04-17T02:36:42.186Z,102499.19
2023-04-17T02:39:12.235Z,102501.84
2023-04-17T02:41:41.237Z,102506.31
2023-04-17T02:44:08.125Z,102505.47
2023-04-17T02:46:34.864Z,102506.47
2023-04-17T02:49:02.780Z,102510.94
2023-04-17T02:51:32.368Z,102499.59
2023-04-17T02:53:59.070Z,102500.31
2023-04-17T02:56:25.809Z,102504.38
2023-04-17T02:58:53.001Z,102505.19
2023-04-17T03:01:19.945Z,102510.09
2023-04-17T03:03:47.641Z,102508.41
2023-04-17T03:06:15.868Z,102513.44
2023-04-17T03:08:44.715Z,102513.31
2023-04-17T03:11:12.195Z,102512.34
2023-04-17T03:13:41.444Z,102513.59
2023-04-17T03:16:08.219Z,102512.34
2023-04-17T03:18:39.312Z,102518.91
2023-04-17T03:21:06.298Z,102525.31
2023-04-17T03:23:35.302Z,102515.25
2023-04-17T03:26:03.886Z,102512.16
2023-04-17T03:28:34.670Z,102513.00
2023-04-17T03:31:04.009Z,102508.66
2023-04-17T03:33:31.159Z,102512.75
2023-04-17T03:36:04.811Z,102513.00
2023-04-17T03:38:31.801Z,102510.78
2023-04-17T03:40:58.737Z,102517.75
2023-04-17T03:43:26.879Z,102515.09
2023-04-17T03:45:53.707Z,102512.28
2023-04-17T03:48:20.692Z,102508.66
2023-04-17T03:50:48.316Z,102508.81
2023-04-17T03:53:16.569Z,102512.72
2023-04-17T03:55:43.331Z,102499.88
2023-04-17T03:58:10.473Z,102510.50
2023-04-17T04:00:38.665Z,102511.47
2023-04-17T04:03:06.714Z,102517.88
2023-04-17T04:05:33.685Z,102522.75
2023-04-17T04:08:00.469Z,102524.56
2023-04-17T04:10:29.559Z,102520.50
2023-04-17T04:12:56.466Z,102520.66
2023-04-17T04:15:23.387Z,102522.47
2023-04-17T04:17:51.725Z,102519.94
2023-04-17T04:20:22.908Z,102525.78
2023-04-17T04:22:50.576Z,102521.19
2023-04-17T04:25:17.446Z,102531.69
2023-04-17T04:27:49.659Z,102521.91
2023-04-17T04:30:17.279Z,102533.09
2023-04-17T04:32:47.590Z,102522.75
2023-04-17T04:35:17.412Z,102530.00
2023-04-17T04:37:46.445Z,102529.47
2023-04-17T04:40:16.462Z,102530.00
2023-04-17T04:42:43.327Z,102527.22
2023-04-17T04:45:10.849Z,102537.72
2023-04-17T04:47:38.100Z,102535.72
2023-04-17T04:50:05.691Z,102542.72
2023-04-17T04:52:38.573Z,102536.41
2023-04-17T04:55:06.622Z,102539.22
2023-04-17T04:57:33.610Z,102544.53
2023-04-17T05:00:00.486Z,102545.50
2023-04-17T05:02:27.811Z,102538.09
2023-04-17T05:04:54.876Z,102547.03
2023-04-17T05:07:21.758Z,102548.72
2023-04-17T05:09:50.314Z,102552.19
2023-04-17T05:12:17.254Z,102545.34
2023-04-17T05:14:44.133Z,102547.88
2023-04-17T05:17:12.286Z,102551.78
2023-04-17T05:19:39.025Z,102554.16
2023-04-17T05:22:05.905Z,102556.56
2023-04-17T05:24:32.827Z,102565.22
2023-04-17T05:27:02.669Z,102560.88
2023-04-17T05:29:33.146Z,102562.13
2023-04-17T05:32:02.444Z,102564.50
2023-04-17T05:34:29.460Z,102566.63
2023-04-17T05:36:56.240Z,102559.34
2023-04-17T05:39:22.964Z,102568.84
2023-04-17T05:41:49.682Z,102556.41
2023-04-17T05:44:17.832Z,102564.81
2023-04-17T05:46:44.533Z,102567.88
2023-04-17T05:49:11.433Z,102564.84
2023-04-17T05:51:38.429Z,102561.06
2023-04-17T05:54:06.410Z,102571.84
2023-04-17T05:56:33.182Z,102573.66
2023-04-17T05:59:01.419Z,102570.03
2023-04-17T06:01:29.797Z,102573.66
2023-04-17T06:03:57.210Z,102577.84
2023-04-17T06:06:24.386Z,102574.78
2023-04-17T06:08:52.600Z,102579.41
2023-04-17T06:11:19.461Z,102587.50
2023-04-17T06:13:46.384Z,102586.66
2023-04-17T06:16:14.052Z,102593.09
2023-04-17T06:18:43.059Z,102591.41
2023-04-17T06:21:10.502Z,102589.44
2023-04-17T06:23:37.204Z,102588.63
2023-04-17T06:26:04.026Z,102585.97
2023-04-17T06:28:31.102Z,102591.13
2023-04-17T06:30:57.824Z,102595.19
2023-04-17T06:33:26.647Z,102592.53
2023-04-17T06:35:55.474Z,102595.06
2023-04-17T06:38:22.562Z,102592.97
2023-04-17T06:40:52.489Z,102599.53
2023-04-17T06:43:21.672Z,102602.31
2023-04-17T06:45:49.605Z,102605.81
2023-04-17T06:48:16.354Z,102604.00
2023-04-17T06:50:43.512Z,102616.16
2023-04-17T06:53:12.054Z,102616.88
2023-04-17T06:55:38.875Z,102621.91
2023-04-17T06:58:07.882Z,102625.41
2023-04-17T07:00:35.022Z,102622.88
2023-04-17T07:03:02.394Z,102623.84
2023-04-17T07:05:29.313Z,102615.91
2023-04-17T07:07:56.474Z,102620.66
2023-04-17T07:10:24.992Z,102620.09
2023-04-17T07:12:59.402Z,102619.13
2023-04-17T07:15:30.512Z,102623.59
2023-04-17T07:17:57.905Z,102632.41
2023-04-17T07:20:25.908Z,102634.53
2023-04-17T07:22:55.521Z,102635.94
2023-04-17T07:25:22.628Z,102639.44
2023-04-17T07:27:52.346Z,102643.63
2023-04-17T07:30:19.120Z,102647.84
2023-04-17T07:32:46.919Z,102644.47
2023-04-17T07:35:14.207Z,102645.31
2023-04-17T07:37:41.295Z,102648.94
2023-04-17T07:40:10.829Z,102655.09
2023-04-17T07:42:38.021Z,102653.72
2023-04-17T07:45:09.036Z,102652.34
2023-04-17T07:47:37.454Z,102651.13
2023-04-17T07:50:05.433Z,102657.13
2023-04-17T07:52:33.594Z,102659.50
2023-04-17T07:55:00.406Z,102656.16
2023-04-17T07:57:28.201Z,102653.34
2023-04-17T07:59:59.706Z,102646.94
2023-04-17T08:02:29.591Z,102658.94
2023-04-17T08:05:02.061Z,102657.72
2023-04-17T08:07:29.213Z,102653.94
2023-04-17T08:09:56.287Z,102654.94
2023-04-17T08:12:23.633Z,102653.25
2023-04-17T08:14:53.603Z,102654.22
2023-04-17T08:17:25.945Z,102654.34
2023-04-17T08:19:55.463Z,102660.25
2023-04-17T08:22:25.910Z,102658.25
2023-04-17T08:24:57.866Z,102658.53
2023-04-17T08:27:27.591Z,102655.50
2023-04-17T08:29:54.471Z,102652.41
2023-04-17T08:32:21.853Z,102650.72
2023-04-17T08:34:50.282Z,102660.78
2023-04-17T08:37:18.513Z,102663.59
2023-04-17T08:39:45.858Z,102658.56
2023-04-17T08:42:18.167Z,102654.34
2023-04-17T08:44:45.821Z,102655.19
2023-04-17T08:47:18.195Z,102660.06
2023-04-17T08:49:46.152Z,102649.56
2023-04-17T08:52:13.257Z,102655.13
2023-04-17T08:54:41.752Z,102655.13
2023-04-17T08:57:08.682Z,102656.22
2023-04-17T08:59:37.935Z,102650.84
2023-04-17T09:02:08.057Z,102655.31
2023-04-17T09:04:39.318Z,102654.56
2023-04-17T09:07:06.973Z,102656.19
2023-04-17T09:09:52.929Z,102652.69
2023-04-17T09:12:20.585Z,102654.63
2023-04-17T09:14:48.079Z,102650.66
2023-04-17T09:17:19.639Z,102651.91
2023-04-17T09:20:04.553Z,102652.16
2023-04-17T09:22:31.470Z,102656.19
2023-04-17T09:24:59.869Z,102649.56
2023-04-17T09:27:27.860Z,102662.31
2023-04-17T09:29:59.130Z,102655.38
2023-04-17T09:32:33.095Z,102654.91
2023-04-17T09:35:01.742Z,102658.78
2023-04-17T09:37:51.075Z,102655.69
2023-04-17T09:40:22.024Z,102661.41
2023-04-17T09:42:56.914Z,102657.44
2023-04-17T09:45:24.814Z,102657.81
2023-04-17T09:47:56.194Z,102656.66
2023-04-17T09:50:27.232Z,102663.53
2023-04-17T09:52:56.158Z,102663.06
2023-04-17T09:55:26.795Z,102662.44
2023-04-17T09:57:58.497Z,102671.00
2023-04-17T10:00:27.913Z,102659.00
2023-04-17T10:02:57.013Z,102658.38
2023-04-17T10:05:27.070Z,102664.28
2023-04-17T10:07:54.029Z,102658.78
2023-04-17T10:10:31.573Z,102659.44
2023-04-17T10:13:00.986Z,102656.63
2023-04-17T10:15:29.338Z,102655.34
2023-04-17T10:18:17.341Z,102650.22
2023-04-17T10:20:48.758Z,102648.75
2023-04-17T10:23:30.574Z,102641.81
2023-04-17T10:26:39.013Z,102644.00
2023-04-17T10:29:07.438Z,102647.22
2023-04-17T10:32:26.326Z,102643.06
2023-04-17T10:34:54.330Z,102641.59
2023-04-17T10:37:23.054Z,102634.63
2023-04-17T10:39:54.537Z,102643.38
2023-04-17T10:42:23.154Z,102639.91
2023-04-17T10:44:55.812Z,102636.41
2023-04-17T10:47:23.165Z,102629.44
2023-04-17T10:49:51.518Z,102638.78
2023-04-17T10:52:42.249Z,102641.16
2023-04-17T10:55:11.130Z,102636.66
2023-04-17T10:57:55.795Z,102635.66
2023-04-17T11:00:32.512Z,102637.00
2023-04-17T11:03:01.131Z,102637.50
2023-04-17T11:05:28.556Z,102630.69
2023-04-17T11:07:55.470Z,102629.03
2023-04-17T11:10:23.322Z,102630.34
2023-04-17T11:12:53.480Z,102633.91
2023-04-17T11:15:26.798Z,102624.91
2023-04-17T11:17:56.485Z,102620.09
2023-04-17T11:20:24.337Z,102614.75
2023-04-17T11:22:51.353Z,102618.06
2023-04-17T11:25:26.147Z,102621.75
2023-04-17T11:27:56.030Z,102624.44
2023-04-17T11:30:28.036Z,102617.25
2023-04-17T11:32:57.828Z,102625.44
2023-04-17T11:35:29.155Z,102622.44
2023-04-17T11:38:14.521Z,102621.06
2023-04-17T11:40:49.722Z,102625.09
2023-04-17T11:43:17.366Z,102620.91
2023-04-17T11:45:46.338Z,102621.91
2023-04-17T11:48:16.176Z,102622.22
2023-04-17T11:50:46.181Z,102612.00
2023-04-17T11:53:16.400Z,102620.34
2023-04-17T11:55:43.792Z,102619.81
2023-04-17T11:58:12.353Z,102614.31
2023-04-17T12:00:40.707Z,102615.16
2023-04-17T12:03:39.080Z,102623.66
2023-04-17T12:06:06.637Z,102621.47
2023-04-17T12:08:43.745Z,102616.28
2023-04-17T12:11:17.980Z,102615.56
2023-04-17T12:13:46.229Z,102619.44
2023-04-17T12:16:13.429Z,102615.25
2023-04-17T12:18:41.766Z,102613.53
2023-04-17T12:21:08.528Z,102614.69
2023-04-17T12:23:35.345Z,102617.50
2023-04-17T12:26:02.297Z,102610.75
2023-04-17T12:28:29.795Z,102619.97
2023-04-17T12:30:56.744Z,102622.94
2023-04-17T12:33:23.984Z,102610.66
2023-04-17T12:35:53.666Z,102618.84
2023-04-17T12:38:26.252Z,102610.09
2023-04-17T12:40:55.467Z,102615.09
2023-04-17T12:43:22.685Z,102613.72
2023-04-17T12:45:50.585Z,102613.72
2023-04-17T12:48:17.514Z,102614.22
2023-04-17T12:50:44.995Z,102622.56
2023-04-17T12:53:15.661Z,102622.00
2023-04-17T12:55:44.261Z,102619.81
2023-04-17T12:58:12.839Z,102621.63
2023-04-17T13:00:40.843Z,102618.22
2023-04-17T13:03:07.905Z,102615.34
2023-04-17T13:05:35.732Z,102609.13
2023-04-17T13:08:02.478Z,102610.06
2023-04-17T13:10:30.872Z,102615.38
2023-04-17T13:12:57.895Z,102607.75
2023-04-17T13:15:25.080Z,102602.66
2023-04-17T13:17:51.898Z,102606.28
2023-04-17T13:20:18.941Z,102604.44
2023-04-17T13:22:46.058Z,102598.53
2023-04-17T13:25:13.492Z,102601.94
2023-04-17T13:27:41.602Z,102603.63
2023-04-17T13:30:09.513Z,102606.31
2023-04-17T13:32:36.712Z,102604.47
2023-04-17T13:35:05.288Z,102597.91
2023-04-17T13:37:32.565Z,102603.72
2023-04-17T13:40:03.834Z,102591.03
2023-04-17T13:42:30.847Z,102588.91
2023-04-17T13:44:58.956Z,102594.28
2023-04-17T13:47:25.900Z,102587.59
2023-04-17T13:49:52.807Z,102575.72
2023-04-17T13:52:19.700Z,102573.44
2023-04-17T13:54:46.552Z,102573.88
2023-04-17T13:57:14.772Z,102563.41
2023-04-17T13:59:41.631Z,102573.78
2023-04-17T14:02:10.052Z,102562.69
2023-04-17T14:04:37.109Z,102563.97
2023-04-17T14:07:04.486Z,102561.94
2023-04-17T14:09:31.306Z,102562.41
2023-04-17T14:11:58.284Z,102558.34
2023-04-17T14:14:28.722Z,102551.38
2023-04-17T14:16:55.822Z,102555.81
2023-04-17T14:19:24.317Z,102547.19
2023-04-17T14:21:51.190Z,102552.66
2023-04-17T14:24:18.332Z,102550.22
2023-04-17T14:26:45.142Z,102552.53
2023-04-17T14:29:14.700Z,102546.72
2023-04-17T14:31:41.830Z,102541.06
2023-04-17T14:34:08.722Z,102538.75
2023-04-17T14:36:37.021Z,102539.50
2023-04-17T14:39:04.009Z,102531.81
2023-04-17T14:41:34.072Z,102529.47
2023-04-17T14:44:01.128Z,102532.16
2023-04-17T14:46:28.109Z,102533.56
2023-04-17T14:48:55.964Z,102524.69
2023-04-17T14:51:23.756Z,102522.47
2023-04-17T14:53:53.062Z,102526.44
2023-04-17T14:56:21.598Z,102528.94
2023-04-17T14:58:48.823Z,102521.13
2023-04-17T15:01:15.805Z,102511.47
2023-04-17T15:03:46.720Z,102530.13
2023-04-17T15:06:15.255Z,102522.81
2023-04-17T15:08:42.358Z,102511.59
2023-04-17T15:11:10.713Z,102514.19
2023-04-17T15:13:39.514Z,102513.75
2023-04-17T15:16:06.825Z,102509.56
2023-04-17T15:18:34.754Z,102509.13
2023-04-17T15:21:01.577Z,102505.13
2023-04-17T15:23:29.933Z,102512.75
2023-04-17T15:25:57.948Z,102499.84
2023-04-17T15:28:26.164Z,102505.78
2023-04-17T15:30:53.178Z,102500.16
2023-04-17T15:33:20.234Z,102507.91
2023-04-17T15:35:47.171Z,102497.06
2023-04-17T15:38:14.330Z,102491.44
2023-04-17T15:40:41.135Z,102488.94
2023-04-17T15:43:08.194Z,102487.06
2023-04-17T15:45:36.481Z,102492.28
2023-04-17T15:48:03.410Z,102492.28
2023-04-17T15:50:30.463Z,102485.03
2023-04-17T15:52:57.289Z,102485.50
2023-04-17T15:55:24.140Z,102485.13
2023-04-17T15:57:50.977Z,102486.81
2023-04-17T16:00:18.833Z,102495.03
2023-04-17T16:02:50.624Z,102494.38
2023-04-17T16:05:19.401Z,102497.66
2023-04-17T16:07:46.560Z,102498.66
2023-04-17T16:10:14.720Z,102494.19
2023-04-17T16:12:43.082Z,102501.31
2023-04-17T16:15:11.458Z,102504.63
2023-04-17T16:17:38.480Z,102501.34
2023-04-17T16:20:08.315Z,102497.72
2023-04-17T16:22:35.356Z,102498.84
2023-04-17T16:25:02.735Z,102499.06
2023-04-17T16:27:30.345Z,102493.41
2023-04-17T16:29:57.994Z,102495.81
2023-04-17T16:32:25.767Z,102495.31
2023-04-17T16:34:52.947Z,102487.84
2023-04-17T16:37:21.881Z,102490.19
2023-04-17T16:39:48.941Z,102486.22
2023-04-17T16:42:16.196Z,102487.94
2023-04-17T16:44:45.551Z,102488.66
2023-04-17T16:47:15.653Z,102492.53
2023-04-17T16:49:43.518Z,102498.06
2023-04-17T16:52:10.449Z,102505.47
2023-04-17T16:54:38.756Z,102496.91
2023-04-17T16:57:08.553Z,102489.03
2023-04-17T16:59:35.448Z,102496.44
2023-04-17T17:02:02.910Z,102493.28
2023-04-17T17:04:30.042Z,102496.50
2023-04-17T17:06:57.629Z,102495.66
2023-04-17T17:09:25.246Z,102487.44
2023-04-17T17:11:53.554Z,102492.81
2023-04-17T17:14:20.475Z,102490.31
2023-04-17T17:16:47.986Z,102497.50
2023-04-17T17:19:15.334Z,102496.81
2023-04-17T17:21:42.291Z,102492.66
2023-04-17T17:24:09.413Z,102483.09
2023-04-17T17:26:37.145Z,102490.97
2023-04-17T17:29:07.019Z,102488.28
2023-04-17T17:31:34.648Z,102484.78
2023-04-17T17:34:11.886Z,102489.31
2023-04-17T17:36:49.433Z,102486.78
2023-04-17T17:39:16.990Z,102492.81
2023-04-17T17:41:45.804Z,102484.13
2023-04-17T17:44:15.069Z,102486.78
2023-04-17T17:46:42.123Z,102488.63
2023-04-17T17:49:10.703Z,102487.63
2023-04-17T17:51:37.606Z,102487.63
2023-04-17T17:54:04.361Z,102488.47
2023-04-17T17:56:36.392Z,102482.28
2023-04-17T17:59:03.278Z,102488.81
2023-04-17T18:01:31.542Z,102487.13
2023-04-17T18:03:58.508Z,102486.66
2023-04-17T18:06:26.736Z,102492.38
2023-04-17T18:08:53.630Z,102493.91
2023-04-17T18:11:21.217Z,102494.28
2023-04-17T18:13:48.102Z,102488.56
2023-04-17T18:16:14.891Z,102497.16
2023-04-17T18:18:43.179Z,102498.53
2023-04-17T18:21:11.218Z,102498.84
2023-04-17T18:23:38.044Z,102500.84
2023-04-17T18:26:05.010Z,102506.75
2023-04-17T18:28:32.759Z,102509.75
2023-04-17T18:30:59.768Z,102508.59
2023-04-17T18:33:26.626Z,102511.81
2023-04-17T18:35:54.767Z,102511.31
2023-04-17T18:38:21.604Z,102510.00
2023-04-17T18:40:53.639Z,102509.31
2023-04-17T18:43:20.410Z,102508.16
2023-04-17T18:45:47.217Z,102503.34
2023-04-17T18:48:14.044Z,102511.53
2023-04-17T18:50:40.818Z,102522.56
2023-04-17T18:53:10.552Z,102515.88
2023-04-17T18:55:37.698Z,102518.06
2023-04-17T18:58:04.729Z,102515.06
2023-04-17T19:00:31.711Z,102524.25
2023-04-17T19:02:58.767Z,102516.56
2023-04-17T19:05:27.398Z,102519.75
2023-04-17T19:07:54.348Z,102518.41
2023-04-17T19:10:23.128Z,102523.22
2023-04-17T19:12:49.958Z,102522.72
2023-04-17T19:15:17.711Z,102529.44
2023-04-17T19:17:44.497Z,102528.91
2023-04-17T19:20:12.733Z,102531.91
2023-04-17T19:22:45.924Z,102532.41
2023-04-17T19:25:26.878Z,102530.25
2023-04-17T19:27:59.993Z,102535.94
2023-04-17T19:30:27.180Z,102545.28
2023-04-17T19:33:02.975Z,102545.97
2023-04-17T19:35:31.081Z,102536.56
2023-04-17T19:37:58.248Z,102536.25
2023-04-17T19:40:26.050Z,102540.88
2023-04-17T19:42:54.798Z,102545.59
2023-04-17T19:48:07.275Z,102536.84
2023-04-17T19:50:36.210Z,102539.84
2023-04-17T19:53:03.000Z,102547.53
2023-04-17T19:55:29.840Z,102547.19
2023-04-17T19:57:58.755Z,102548.31
2023-04-17T20:00:28.604Z,102545.00
2023-04-17T20:02:56.247Z,102548.13
2023-04-17T20:05:25.538Z,102549.47
2023-04-17T20:07:55.590Z,102558.63
2023-04-17T20:10:22.682Z,102550.44
2023-04-17T20:12:49.868Z,102552.75
2023-04-17T20:15:20.194Z,102551.56
2023-04-17T20:18:03.228Z,102558.03
2023-04-17T20:23:21.908Z,102553.34
2023-04-17T20:25:49.276Z,102555.78
2023-04-17T20:28:16.119Z,102557.91
2023-04-17T20:30:42.933Z,102558.25
2023-04-17T20:33:11.758Z,102570.38
2023-04-17T20:35:40.696Z,102555.13
2023-04-17T20:38:07.589Z,102552.81
2023-04-17T20:40:34.344Z,102553.78
2023-04-17T20:43:01.159Z,102543.59
2023-04-17T20:45:28.528Z,102545.59
2023-04-17T20:47:57.058Z,102543.41
2023-04-17T20:50:28.476Z,102547.34
2023-04-17T20:52:55.413Z,102544.31
2023-04-17T20:55:24.677Z,102547.44
2023-04-17T20:57:51.847Z,102548.59
2023-04-17T21:00:21.659Z,102542.72
2023-04-17T21:02:55.991Z,102547.56
2023-04-17T21:05:23.858Z,102544.19
2023-04-17T21:07:53.043Z,102547.84
2023-04-17T21:10:25.638Z,102543.81
2023-04-17T21:12:53.369Z,102545.94
2023-04-17T21:15:23.047Z,102545.72
2023-04-17T21:17:52.083Z,102544.38
2023-04-17T21:20:20.094Z,102552.28
2023-04-17T21:22:46.933Z,102558.63
2023-04-17T21:25:15.213Z,102549.09
2023-04-17T21:27:44.781Z,102549.56
2023-04-17T21:30:12.027Z,102554.38
2023-04-17T21:32:40.318Z,102556.34
2023-04-17T21:35:08.438Z,102559.16
2023-04-17T21:37:35.550Z,102558.44
2023-04-17T21:40:02.486Z,102565.59
2023-04-17T21:42:30.963Z,102560.88
2023-04-17T21:45:00.295Z,102564.00
2023-04-17T21:47:29.692Z,102567.66
2023-04-17T21:49:56.656Z,102574.97
2023-04-17T21:52:27.125Z,102572.47
2023-04-17T21:54:54.094Z,102576.97
2023-04-17T21:57:21.084Z,102569.94
2023-04-17T21:59:49.526Z,102571.91
2023-04-17T22:02:16.461Z,102578.94
2023-04-17T22:04:43.857Z,102574.44
2023-04-17T22:07:10.733Z,102578.09
2023-04-17T22:09:37.755Z,102579.66
2023-04-17T22:12:11.625Z,102578.41
2023-04-17T22:14:38.401Z,102582.34
2023-04-17T22:17:06.945Z,102580.97
2023-04-17T22:19:34.186Z,102583.78
2023-04-17T22:22:01.151Z,102587.59
2023-04-17T22:24:28.737Z,102585.91
2023-04-17T22:26:55.615Z,102587.75
2023-04-17T22:29:23.045Z,102591.97
2023-04-17T22:31:50.206Z,102590.91
2023-04-17T22:34:19.074Z,102599.88
2023-04-17T22:36:46.465Z,102599.31
2023-04-17T22:39:13.396Z,102593.31
2023-04-17T22:41:40.602Z,102590.91
2023-04-17T22:44:07.465Z,102597.22
2023-04-17T22:46:34.616Z,102589.38
2023-04-17T22:49:01.745Z,102591.22
2023-04-17T22:51:31.653Z,102597.69
2023-04-17T22:53:59.907Z,102596.28
2023-04-17T22:56:28.441Z,102590.56
2023-04-17T22:58:55.357Z,102591.00
2023-04-17T23:01:22.382Z,102593.66
2023-04-17T23:03:52.765Z,102595.94
2023-04-17T23:06:26.029Z,102588.50
2023-04-17T23:08:54.382Z,102582.34
2023-04-17T23:11:24.016Z,102586.69
2023-04-17T23:13:51.381Z,102588.66
2023-04-17T23:16:18.545Z,102588.81
2023-04-17T23:18:45.563Z,102594.41
2023-04-17T23:21:12.490Z,102592.03
2023-04-17T23:23:39.201Z,102592.03
2023-04-17T23:26:08.772Z,102597.50
2023-04-17T23:28:36.031Z,102589.66
2023-04-17T23:31:04.601Z,102592.44
2023-04-17T23:33:31.860Z,102594.28
2023-04-17T23:35:59.205Z,102600.59
2023-04-17T23:38:27.132Z,102600.31
2023-04-17T23:40:54.426Z,102598.78
2023-04-17T23:43:22.614Z,102599.19
2023-04-17T23:45:49.384Z,102597.94
2023-04-17T23:48:18.454Z,102601.03
2023-04-17T23:50:45.532Z,102602.28
2023-04-17T23:53:13.602Z,102595.31
2023-04-17T23:55:40.887Z,102596.28
2023-04-17T23:58:07.755Z,102599.53
